Marfret Guyane — FNMV — position and weather

sailwx.info

Track history (hours):
 
Tides and Currents Weather Stations Pressure Air Temp Water Temp Dewpoint Dewpoint Depression Visibility Wind Speed Wind Dir Waves Ship Positions

Marfret Guyane

Last reported at 2015-Aug-01 15:33 UTC. Time now 2015-Aug-03 10:38 UTC.
Position N 35°42' W 028°57'.

Length 170 m; draft 7.3 m.

Type: Ship (hazmat cat A). MMSI: 226324000.

Date/timePositionNaut miles runAvg speedWind from/ knotsBaromVisibWave heightAir tempDewpointWater temp
2015-Aug-01 15:33N 35°42' W 028°57'11418.4
2015-Aug-01 09:21N 36°40' W 026°55'1418.2
2015-Aug-01 08:34N 36°47' W 026°39'1818.2
2015-Aug-01 07:34N 36°57' W 026°20'1818.0
2015-Aug-01 06:33N 37°06' W 026°00'1818.0
2015-Aug-01 05:33N 37°15' W 025°41'1818.2
2015-Aug-01 04:34N 37°25' W 025°21'1817.7
2015-Aug-01 03:33N 37°34' W 025°03'1818.1
2015-Aug-01 02:33N 37°46' W 024°45'1717.3
2015-Aug-01 01:34N 37°56' W 024°27'1817.6
2015-Aug-01 00:34N 38°07' W 024°10'2117.4
2015-Jul-31 23:22N 38°20' W 023°50'  
2015-Jul-29 05:25N 49°45' W 000°51'1517.0
2015-Jul-29 04:33N 49°39' W 000°30'1716.6
2015-Jul-29 03:33N 49°32' W 000°07'1010.2
2015-Jul-29 02:34N 49°28' E 000°08'2 1.5
2015-Jul-29 01:32N 49°29' E 000°10'0 0.0
2015-Jul-29 00:29N 49°29' E 000°10'0 0.0
2015-Jul-28 23:32N 49°29' E 000°10'0 0.0
2015-Jul-28 22:32N 49°29' E 000°10'0 0.0
2015-Jul-28 21:32N 49°29' E 000°10'0 0.0
2015-Jul-28 20:32N 49°29' E 000°10'0 0.0
2015-Jul-28 19:32N 49°29' E 000°10'0 0.0
2015-Jul-28 18:32N 49°29' E 000°10'0 0.0
2015-Jul-28 17:32N 49°29' E 000°10'0 0.0
2015-Jul-28 16:32N 49°29' E 000°10'0 0.0
2015-Jul-28 15:32N 49°29' E 000°10'0 0.0
2015-Jul-28 14:32N 49°29' E 000°10'0 0.0
2015-Jul-28 13:32N 49°29' E 000°10'0 0.0
2015-Jul-28 12:32N 49°29' E 000°10'0 0.0
2015-Jul-28 11:32N 49°29' E 000°10'0 0.0
2015-Jul-28 10:32N 49°29' E 000°10'0 0.0
2015-Jul-28 09:32N 49°29' E 000°10'0 0.0
2015-Jul-28 08:32N 49°29' E 000°10'0 0.0
2015-Jul-28 07:29N 49°29' E 000°10'3 3.8
2015-Jul-28 06:33N 49°29' E 000°05'5 4.8
2015-Jul-28 05:33N 49°26' E 000°10'1010.0
2015-Jul-28 04:33N 49°27' E 000°25'7 6.8
2015-Jul-28 03:33N 49°26' E 000°36'8 8.0
2015-Jul-28 02:31N 49°31' E 000°46'7 0.2
2015-Jul-26 17:05N 49°28' E 000°56'4 5.7
2015-Jul-26 16:23N 49°24' E 000°52'7 7.8
2015-Jul-26 15:30N 49°30' E 000°46'8 8.9
2015-Jul-26 14:33N 49°26' E 000°35'1110.9
2015-Jul-26 13:34N 49°26' E 000°18'1212.3
2015-Jul-26 12:33N 49°28' W 000°00'7 7.0
2015-Jul-26 11:33N 49°33' W 000°07'9 8.9
2015-Jul-26 10:33N 49°42' W 000°03'9 9.2
2015-Jul-26 09:33N 49°50' E 000°05'47 9.1
2015-Jul-26 04:22N 50°32' E 000°36'7 9.2
2015-Jul-26 03:33N 50°38' E 000°44'1010.2
2015-Jul-26 02:33N 50°44' E 000°57'9 9.4
2015-Jul-26 01:33N 50°50' E 001°08'10 9.6
2015-Jul-26 00:33N 50°57' E 001°20'1010.2
2015-Jul-25 23:34N 51°04' E 001°30'1010.3
2015-Jul-25 22:34N 51°13' E 001°38'1010.0
2015-Jul-25 21:33N 51°23' E 001°35'1110.7
2015-Jul-25 20:33N 51°29' E 001°20'1313.0
2015-Jul-25 19:34N 51°29' E 000°59'1514.5
2015-Jul-25 18:33N 51°30' E 000°36'1010.1
2015-Jul-25 17:34N 51°27' E 000°21'1 0.7
2015-Jul-25 16:33N 51°27' E 000°20'0 0.0
2015-Jul-25 15:34N 51°27' E 000°20'0 0.0
2015-Jul-25 14:34N 51°27' E 000°20'0 0.0
2015-Jul-25 13:33N 51°27' E 000°20'0 0.0
2015-Jul-25 12:33N 51°27' E 000°20'0 0.0
2015-Jul-25 11:34N 51°27' E 000°20'0 0.0
2015-Jul-25 10:34N 51°27' E 000°20'0 0.0
2015-Jul-25 09:33N 51°27' E 000°20'0 0.0
2015-Jul-25 08:34N 51°27' E 000°20'0 0.0
2015-Jul-25 07:34N 51°27' E 000°20'2 1.7
2015-Jul-25 06:33N 51°27' E 000°23'1110.7
2015-Jul-25 05:34N 51°30' E 000°39'1515.4
2015-Jul-25 04:33N 51°30' E 001°04'1515.0
2015-Jul-25 03:34N 51°28' E 001°28'3 3.1
2015-Jul-25 02:34N 51°25' E 001°31'5 5.2
2015-Jul-25 01:34N 51°29' E 001°36'4 4.4
2015-Jul-25 00:33N 51°30' E 001°43'6 5.8
2015-Jul-24 23:34N 51°31' E 001°52'6 5.9
2015-Jul-24 22:33N 51°32' E 002°02'7 6.6
2015-Jul-24 21:34N 51°37' E 002°09'6 6.1
2015-Jul-24 20:33N 51°41' E 002°15'2914.6
2015-Jul-24 18:33N 52°02' E 002°50'1212.5
2015-Jul-24 17:33N 52°03' E 003°10'1313.0
2015-Jul-24 16:34N 52°04' E 003°31'1413.5
2015-Jul-24 15:33N 52°03' E 003°53'1212.4
2015-Jul-24 14:33N 51°57' E 004°11'9 9.3
2015-Jul-24 13:34N 51°53' E 004°24'0 0.2
2015-Jul-24 12:33N 51°53' E 004°24'0 0.0
2015-Jul-24 11:33N 51°53' E 004°24'0 0.0
2015-Jul-24 10:33N 51°53' E 004°24'0 0.0
2015-Jul-24 09:33N 51°53' E 004°24'0 0.0
2015-Jul-24 08:33N 51°53' E 004°24'0 0.0
2015-Jul-24 07:33N 51°53' E 004°24'0 0.0
2015-Jul-24 06:33N 51°53' E 004°24'0 0.0
2015-Jul-24 05:33N 51°53' E 004°24'0 0.0
2015-Jul-24 04:33N 51°53' E 004°24'0 0.0
2015-Jul-24 03:33N 51°53' E 004°24'0 0.0
2015-Jul-24 02:33N 51°53' E 004°24'0 0.0
2015-Jul-24 01:33N 51°53' E 004°24'0 0.0
2015-Jul-24 00:33N 51°53' E 004°24'0 0.0
2015-Jul-23 23:33N 51°53' E 004°24'0 0.0
2015-Jul-23 22:33N 51°53' E 004°24'0 0.0
2015-Jul-23 21:33N 51°53' E 004°24'0 0.0
2015-Jul-23 20:33N 51°53' E 004°24'0 0.0
2015-Jul-23 19:33N 51°53' E 004°24'0 0.0
2015-Jul-23 18:33N 51°53' E 004°24'0 0.0
2015-Jul-23 17:33N 51°53' E 004°24'0 0.0
2015-Jul-23 16:33N 51°53' E 004°24'0 0.0
2015-Jul-23 15:33N 51°53' E 004°24'0 0.0
2015-Jul-23 14:30N 51°53' E 004°24'0 0.0
2015-Jul-23 13:33N 51°53' E 004°24'0 0.0
2015-Jul-23 12:33N 51°53' E 004°24'0 0.2
2015-Jul-23 11:33N 51°53' E 004°25'7 7.4
2015-Jul-23 10:34N 51°56' E 004°13'1111.0
2015-Jul-23 09:33N 51°60' E 003°57'1111.0
2015-Jul-23 08:33N 51°58' E 003°39'1010.1
2015-Jul-23 07:32N 51°55' E 003°23'2310.3
2015-Jul-23 05:17N 51°48' E 002°47'911.5
2015-Jul-23 04:33N 51°43' E 002°35'1212.2
2015-Jul-23 03:33N 51°35' E 002°21'1312.9
2015-Jul-23 02:33N 51°25' E 002°08'1212.5
2015-Jul-23 01:33N 51°16' E 001°54'1211.7
2015-Jul-23 00:33N 51°07' E 001°42'1110.8
2015-Jul-22 23:33N 50°59' E 001°31'1110.7
2015-Jul-22 22:32N 50°49' E 001°24'1211.2
2015-Jul-22 21:27N 50°38' E 001°15'1112.2
2015-Jul-22 20:31N 50°31' E 001°01'1414.5
2015-Jul-22 19:33N 50°26' E 000°40'  
Track history (hours):
 
Tides and Currents Weather Stations Pressure Air Temp Water Temp Dewpoint Dewpoint Depression Visibility Wind Speed Wind Dir Waves Ship Positions

Marfret Guyane

Last reported at 2015-Aug-01 15:33 UTC. Time now 2015-Aug-03 10:38 UTC.
Position N 35°42' W 028°57'.

Length 170 m; draft 7.3 m.

Type: Ship (hazmat cat A). MMSI: 226324000.

Date/timePositionNaut miles runAvg speedWind from/ knotsBaromVisibWave heightAir tempDewpointWater temp
2015-Aug-01 15:33N 35°42' W 028°57'11418.4
2015-Aug-01 09:21N 36°40' W 026°55'1418.2
2015-Aug-01 08:34N 36°47' W 026°39'1818.2
2015-Aug-01 07:34N 36°57' W 026°20'1818.0
2015-Aug-01 06:33N 37°06' W 026°00'1818.0
2015-Aug-01 05:33N 37°15' W 025°41'1818.2
2015-Aug-01 04:34N 37°25' W 025°21'1817.7
2015-Aug-01 03:33N 37°34' W 025°03'1818.1
2015-Aug-01 02:33N 37°46' W 024°45'1717.3
2015-Aug-01 01:34N 37°56' W 024°27'1817.6
2015-Aug-01 00:34N 38°07' W 024°10'2117.4
2015-Jul-31 23:22N 38°20' W 023°50'  
2015-Jul-29 05:25N 49°45' W 000°51'1517.0
2015-Jul-29 04:33N 49°39' W 000°30'1716.6
2015-Jul-29 03:33N 49°32' W 000°07'1010.2
2015-Jul-29 02:34N 49°28' E 000°08'2 1.5
2015-Jul-29 01:32N 49°29' E 000°10'0 0.0
2015-Jul-29 00:29N 49°29' E 000°10'0 0.0
2015-Jul-28 23:32N 49°29' E 000°10'0 0.0
2015-Jul-28 22:32N 49°29' E 000°10'0 0.0
2015-Jul-28 21:32N 49°29' E 000°10'0 0.0
2015-Jul-28 20:32N 49°29' E 000°10'0 0.0
2015-Jul-28 19:32N 49°29' E 000°10'0 0.0
2015-Jul-28 18:32N 49°29' E 000°10'0 0.0
2015-Jul-28 17:32N 49°29' E 000°10'0 0.0
2015-Jul-28 16:32N 49°29' E 000°10'0 0.0
2015-Jul-28 15:32N 49°29' E 000°10'0 0.0
2015-Jul-28 14:32N 49°29' E 000°10'0 0.0
2015-Jul-28 13:32N 49°29' E 000°10'0 0.0
2015-Jul-28 12:32N 49°29' E 000°10'0 0.0
2015-Jul-28 11:32N 49°29' E 000°10'0 0.0
2015-Jul-28 10:32N 49°29' E 000°10'0 0.0
2015-Jul-28 09:32N 49°29' E 000°10'0 0.0
2015-Jul-28 08:32N 49°29' E 000°10'0 0.0
2015-Jul-28 07:29N 49°29' E 000°10'3 3.8
2015-Jul-28 06:33N 49°29' E 000°05'5 4.8
2015-Jul-28 05:33N 49°26' E 000°10'1010.0
2015-Jul-28 04:33N 49°27' E 000°25'7 6.8
2015-Jul-28 03:33N 49°26' E 000°36'8 8.0
2015-Jul-28 02:31N 49°31' E 000°46'7 0.2
2015-Jul-26 17:05N 49°28' E 000°56'4 5.7
2015-Jul-26 16:23N 49°24' E 000°52'7 7.8
2015-Jul-26 15:30N 49°30' E 000°46'8 8.9
2015-Jul-26 14:33N 49°26' E 000°35'1110.9
2015-Jul-26 13:34N 49°26' E 000°18'1212.3
2015-Jul-26 12:33N 49°28' W 000°00'7 7.0
2015-Jul-26 11:33N 49°33' W 000°07'9 8.9
2015-Jul-26 10:33N 49°42' W 000°03'9 9.2
2015-Jul-26 09:33N 49°50' E 000°05'47 9.1
2015-Jul-26 04:22N 50°32' E 000°36'7 9.2
2015-Jul-26 03:33N 50°38' E 000°44'1010.2
2015-Jul-26 02:33N 50°44' E 000°57'9 9.4
2015-Jul-26 01:33N 50°50' E 001°08'10 9.6
2015-Jul-26 00:33N 50°57' E 001°20'1010.2
2015-Jul-25 23:34N 51°04' E 001°30'1010.3
2015-Jul-25 22:34N 51°13' E 001°38'1010.0
2015-Jul-25 21:33N 51°23' E 001°35'1110.7
2015-Jul-25 20:33N 51°29' E 001°20'1313.0
2015-Jul-25 19:34N 51°29' E 000°59'1514.5
2015-Jul-25 18:33N 51°30' E 000°36'1010.1
2015-Jul-25 17:34N 51°27' E 000°21'1 0.7
2015-Jul-25 16:33N 51°27' E 000°20'0 0.0
2015-Jul-25 15:34N 51°27' E 000°20'0 0.0
2015-Jul-25 14:34N 51°27' E 000°20'0 0.0
2015-Jul-25 13:33N 51°27' E 000°20'0 0.0
2015-Jul-25 12:33N 51°27' E 000°20'0 0.0
2015-Jul-25 11:34N 51°27' E 000°20'0 0.0
2015-Jul-25 10:34N 51°27' E 000°20'0 0.0
2015-Jul-25 09:33N 51°27' E 000°20'0 0.0
2015-Jul-25 08:34N 51°27' E 000°20'0 0.0
2015-Jul-25 07:34N 51°27' E 000°20'2 1.7
2015-Jul-25 06:33N 51°27' E 000°23'1110.7
2015-Jul-25 05:34N 51°30' E 000°39'1515.4
2015-Jul-25 04:33N 51°30' E 001°04'1515.0
2015-Jul-25 03:34N 51°28' E 001°28'3 3.1
2015-Jul-25 02:34N 51°25' E 001°31'5 5.2
2015-Jul-25 01:34N 51°29' E 001°36'4 4.4
2015-Jul-25 00:33N 51°30' E 001°43'6 5.8
2015-Jul-24 23:34N 51°31' E 001°52'6 5.9
2015-Jul-24 22:33N 51°32' E 002°02'7 6.6
2015-Jul-24 21:34N 51°37' E 002°09'6 6.1
2015-Jul-24 20:33N 51°41' E 002°15'2914.6
2015-Jul-24 18:33N 52°02' E 002°50'1212.5
2015-Jul-24 17:33N 52°03' E 003°10'1313.0
2015-Jul-24 16:34N 52°04' E 003°31'1413.5
2015-Jul-24 15:33N 52°03' E 003°53'1212.4
2015-Jul-24 14:33N 51°57' E 004°11'9 9.3
2015-Jul-24 13:34N 51°53' E 004°24'0 0.2
2015-Jul-24 12:33N 51°53' E 004°24'0 0.0
2015-Jul-24 11:33N 51°53' E 004°24'0 0.0
2015-Jul-24 10:33N 51°53' E 004°24'0 0.0
2015-Jul-24 09:33N 51°53' E 004°24'0 0.0
2015-Jul-24 08:33N 51°53' E 004°24'0 0.0
2015-Jul-24 07:33N 51°53' E 004°24'0 0.0
2015-Jul-24 06:33N 51°53' E 004°24'0 0.0
2015-Jul-24 05:33N 51°53' E 004°24'0 0.0
2015-Jul-24 04:33N 51°53' E 004°24'0 0.0
2015-Jul-24 03:33N 51°53' E 004°24'0 0.0
2015-Jul-24 02:33N 51°53' E 004°24'0 0.0
2015-Jul-24 01:33N 51°53' E 004°24'0 0.0
2015-Jul-24 00:33N 51°53' E 004°24'0 0.0
2015-Jul-23 23:33N 51°53' E 004°24'0 0.0
2015-Jul-23 22:33N 51°53' E 004°24'0 0.0
2015-Jul-23 21:33N 51°53' E 004°24'0 0.0
2015-Jul-23 20:33N 51°53' E 004°24'0 0.0
2015-Jul-23 19:33N 51°53' E 004°24'0 0.0
2015-Jul-23 18:33N 51°53' E 004°24'0 0.0
2015-Jul-23 17:33N 51°53' E 004°24'0 0.0
2015-Jul-23 16:33N 51°53' E 004°24'0 0.0
2015-Jul-23 15:33N 51°53' E 004°24'0 0.0
2015-Jul-23 14:30N 51°53' E 004°24'0 0.0
2015-Jul-23 13:33N 51°53' E 004°24'0 0.0
2015-Jul-23 12:33N 51°53' E 004°24'0 0.2
2015-Jul-23 11:33N 51°53' E 004°25'7 7.4
2015-Jul-23 10:34N 51°56' E 004°13'1111.0
2015-Jul-23 09:33N 51°60' E 003°57'1111.0
2015-Jul-23 08:33N 51°58' E 003°39'1010.1
2015-Jul-23 07:32N 51°55' E 003°23'2310.3
2015-Jul-23 05:17N 51°48' E 002°47'911.5
2015-Jul-23 04:33N 51°43' E 002°35'1212.2
2015-Jul-23 03:33N 51°35' E 002°21'1312.9
2015-Jul-23 02:33N 51°25' E 002°08'1212.5
2015-Jul-23 01:33N 51°16' E 001°54'1211.7
2015-Jul-23 00:33N 51°07' E 001°42'1110.8
2015-Jul-22 23:33N 50°59' E 001°31'1110.7
2015-Jul-22 22:32N 50°49' E 001°24'1211.2
2015-Jul-22 21:27N 50°38' E 001°15'1112.2
2015-Jul-22 20:31N 50°31' E 001°01'1414.5
2015-Jul-22 19:33N 50°26' E 000°40'  

Dump ship's entire track history